createdAt,value
2017-08-01T00:02:06.410Z,96270.27
2017-08-01T00:04:32.320Z,96272.19
2017-08-01T00:06:59.235Z,96270.30
2017-08-01T00:09:25.616Z,96270.91
2017-08-01T00:11:52.280Z,96273.74
2017-08-01T00:14:20.148Z,96270.61
2017-08-01T00:16:46.164Z,96282.05
2017-08-01T00:19:12.242Z,96282.89
2017-08-01T00:21:38.206Z,96284.95
2017-08-01T00:24:04.646Z,96281.98
2017-08-01T00:26:30.580Z,96275.63
2017-08-01T00:28:56.475Z,96271.44
2017-08-01T00:31:22.549Z,96277.75
2017-08-01T00:33:49.246Z,96278.83
2017-08-01T00:36:15.210Z,96279.58
2017-08-01T00:38:42.295Z,96283.26
2017-08-01T00:41:09.373Z,96293.02
2017-08-01T00:43:35.412Z,96295.74
2017-08-01T00:46:08.412Z,96296.63
2017-08-01T00:48:34.465Z,96303.94
2017-08-01T00:51:00.678Z,96305.73
2017-08-01T00:53:28.365Z,96299.66
2017-08-01T00:55:57.973Z,96302.84
2017-08-01T00:58:24.577Z,96302.48
2017-08-01T01:00:50.563Z,96303.48
2017-08-01T01:03:17.288Z,96303.25
2017-08-01T01:05:43.292Z,96299.81
2017-08-01T01:08:09.121Z,96304.70
2017-08-01T01:10:35.017Z,96303.80
2017-08-01T01:13:01.432Z,96310.91
2017-08-01T01:15:27.562Z,96317.56
2017-08-01T01:17:54.144Z,96314.80
2017-08-01T01:20:21.086Z,96315.36
2017-08-01T01:22:47.002Z,96323.45
2017-08-01T01:25:12.997Z,96312.56
2017-08-01T01:27:39.969Z,96320.98
2017-08-01T01:30:05.936Z,96323.00
2017-08-01T01:32:33.488Z,96297.00
2017-08-01T01:34:59.733Z,96327.73
2017-08-01T01:37:25.649Z,96337.45
2017-08-01T01:39:52.204Z,96352.52
2017-08-01T01:42:18.182Z,96379.26
2017-08-01T01:44:44.084Z,96357.98
2017-08-01T01:47:10.773Z,96419.88
2017-08-01T01:49:36.701Z,96438.02
2017-08-01T01:52:02.646Z,96407.02
2017-08-01T01:54:28.692Z,96434.95
2017-08-01T01:56:54.797Z,96452.88
2017-08-01T01:59:21.637Z,96456.69
2017-08-01T02:01:47.660Z,96461.56
2017-08-01T02:04:17.359Z,96473.80
2017-08-01T02:06:43.377Z,96476.44
2017-08-01T02:09:09.312Z,96494.78
2017-08-01T02:11:35.352Z,96499.55
2017-08-01T02:14:01.278Z,96486.89
2017-08-01T02:16:27.264Z,96494.89
2017-08-01T02:18:53.257Z,96494.75
2017-08-01T02:21:19.190Z,96490.30
2017-08-01T02:23:45.074Z,96485.69
2017-08-01T02:26:10.952Z,96497.20
2017-08-01T02:28:36.808Z,96504.97
2017-08-01T02:31:02.761Z,96507.05
2017-08-01T02:33:28.693Z,96515.08
2017-08-01T02:35:56.225Z,96531.57
2017-08-01T02:38:22.117Z,96540.74
2017-08-01T02:40:48.204Z,96531.55
2017-08-01T02:43:14.090Z,96536.86
2017-08-01T02:45:39.910Z,96517.73
2017-08-01T02:48:07.418Z,96554.67
2017-08-01T02:50:34.824Z,96550.88
2017-08-01T02:53:04.118Z,96541.13
2017-08-01T02:55:29.991Z,96561.70
2017-08-01T02:57:55.823Z,96559.39
2017-08-01T03:00:21.713Z,96543.02
2017-08-01T03:02:47.616Z,96538.48
2017-08-01T03:05:13.469Z,96545.23
2017-08-01T03:07:39.942Z,96547.30
2017-08-01T03:10:05.778Z,96523.80
2017-08-01T03:12:32.535Z,96548.91
2017-08-01T03:14:58.417Z,96547.19
2017-08-01T03:17:24.250Z,96543.11
2017-08-01T03:19:50.084Z,96545.47
2017-08-01T03:22:17.493Z,96546.65
2017-08-01T03:24:43.494Z,96550.84
2017-08-01T03:27:10.211Z,96549.76
2017-08-01T03:29:36.257Z,96564.72
2017-08-01T03:32:02.276Z,96559.66
2017-08-01T03:34:28.953Z,96563.70
2017-08-01T03:36:55.709Z,96576.67
2017-08-01T03:39:22.703Z,96589.76
2017-08-01T03:41:48.688Z,96587.06
2017-08-01T03:44:14.573Z,96633.84
2017-08-01T03:46:41.938Z,96647.93
2017-08-01T03:49:09.766Z,96629.25
2017-08-01T03:51:40.714Z,96648.22
2017-08-01T03:54:06.684Z,96649.23
2017-08-01T03:56:32.618Z,96644.62
2017-08-01T03:59:00.346Z,96637.66
2017-08-01T04:01:26.328Z,96632.41
2017-08-01T04:03:56.042Z,96630.73
2017-08-01T04:06:22.024Z,96629.08
2017-08-01T04:08:47.858Z,96623.91
2017-08-01T04:11:14.280Z,96624.56
2017-08-01T04:13:40.423Z,96626.16
2017-08-01T04:16:07.925Z,96597.53
2017-08-01T04:18:34.345Z,96622.14
2017-08-01T04:21:00.284Z,96616.47
2017-08-01T04:23:26.245Z,96617.62
2017-08-01T04:25:52.829Z,96616.66
2017-08-01T04:28:20.321Z,96611.09
2017-08-01T04:30:46.197Z,96611.70
2017-08-01T04:33:12.281Z,96608.66
2017-08-01T04:35:38.253Z,96611.30
2017-08-01T04:38:07.847Z,96618.44
2017-08-01T04:40:34.558Z,96620.11
2017-08-01T04:43:00.511Z,96614.53
2017-08-01T04:45:26.521Z,96651.17
2017-08-01T04:47:52.375Z,96613.50
2017-08-01T04:50:19.086Z,96591.97
2017-08-01T04:52:45.227Z,96621.61
2017-08-01T04:55:11.421Z,96618.15
2017-08-01T04:57:37.343Z,96614.20
2017-08-01T05:00:03.284Z,96608.89
2017-08-01T05:02:29.212Z,96617.02
2017-08-01T05:04:55.343Z,96613.16
2017-08-01T05:07:22.060Z,96595.65
2017-08-01T05:09:47.997Z,96616.87
2017-08-01T05:12:14.736Z,96602.00
2017-08-01T05:14:41.350Z,96613.29
2017-08-01T05:17:07.180Z,96624.11
2017-08-01T05:19:33.643Z,96620.00
2017-08-01T05:21:59.621Z,96624.67
2017-08-01T05:24:25.524Z,96624.82
2017-08-01T05:26:51.642Z,96630.34
2017-08-01T05:29:17.778Z,96635.61
2017-08-01T05:31:43.730Z,96643.34
2017-08-01T05:34:10.566Z,96635.56
2017-08-01T05:36:36.550Z,96636.98
2017-08-01T05:39:02.441Z,96642.14
2017-08-01T05:41:29.295Z,96641.30
2017-08-01T05:43:59.834Z,96644.95
2017-08-01T05:46:26.932Z,96647.76
2017-08-01T05:48:55.987Z,96628.22
2017-08-01T05:51:23.881Z,96649.02
2017-08-01T05:53:49.734Z,96643.00
2017-08-01T05:56:15.594Z,96643.12
2017-08-01T05:58:42.181Z,96629.78
2017-08-01T06:01:08.118Z,96632.94
2017-08-01T06:03:34.049Z,96626.23
2017-08-01T06:06:00.104Z,96615.78
2017-08-01T06:08:27.314Z,96608.52
2017-08-01T06:10:53.215Z,96600.15
2017-08-01T06:13:19.194Z,96608.38
2017-08-01T06:15:45.271Z,96621.00
2017-08-01T06:18:11.302Z,96627.34
2017-08-01T06:20:37.247Z,96622.63
2017-08-01T06:23:03.066Z,96615.28
2017-08-01T06:25:29.042Z,96617.23
2017-08-01T06:27:55.049Z,96614.17
2017-08-01T06:30:20.954Z,96603.91
2017-08-01T06:32:46.970Z,96616.08
2017-08-01T06:35:12.960Z,96604.52
2017-08-01T06:37:38.919Z,96604.92
2017-08-01T06:40:05.562Z,96596.30
2017-08-01T06:42:31.519Z,96579.89
2017-08-01T06:44:57.437Z,96502.85
2017-08-01T06:47:24.142Z,96607.16
2017-08-01T06:49:50.183Z,96616.59
2017-08-01T06:52:16.358Z,96611.06
2017-08-01T06:54:42.385Z,96602.23
2017-08-01T06:57:08.545Z,96608.22
2017-08-01T06:59:34.469Z,96606.69
2017-08-01T07:02:00.546Z,96608.55
2017-08-01T07:04:26.526Z,96608.31
2017-08-01T07:06:52.575Z,96613.17
2017-08-01T07:09:18.567Z,96603.56
2017-08-01T07:11:45.142Z,96605.91
2017-08-01T07:14:11.303Z,96607.06
2017-08-01T07:16:37.259Z,96612.69
2017-08-01T07:19:03.165Z,96613.45
2017-08-01T07:21:29.204Z,96613.23
2017-08-01T07:23:55.281Z,96619.61
2017-08-01T07:26:21.800Z,96619.61
2017-08-01T07:28:47.686Z,96588.88
2017-08-01T07:31:13.820Z,96637.08
2017-08-01T07:33:39.681Z,96638.75
2017-08-01T07:36:05.681Z,96640.70
2017-08-01T07:38:31.594Z,96633.54
2017-08-01T07:40:58.482Z,96653.67
2017-08-01T07:43:24.307Z,96658.07
2017-08-01T07:45:50.152Z,96657.83
2017-08-01T07:48:15.998Z,96658.53
2017-08-01T07:50:41.904Z,96657.56
2017-08-01T07:53:07.779Z,96662.92
2017-08-01T07:55:33.712Z,96648.59
2017-08-01T07:57:59.653Z,96658.91
2017-08-01T08:00:25.821Z,96644.08
2017-08-01T08:02:51.826Z,96651.80
2017-08-01T08:05:17.730Z,96663.63
2017-08-01T08:07:44.559Z,96655.57
2017-08-01T08:10:11.994Z,96665.14
2017-08-01T08:12:37.822Z,96666.03
2017-08-01T08:15:04.411Z,96656.93
2017-08-01T08:17:30.359Z,96653.71
2017-08-01T08:19:56.269Z,96652.84
2017-08-01T08:22:22.105Z,96649.34
2017-08-01T08:24:47.950Z,96648.19
2017-08-01T08:27:13.783Z,96645.79
2017-08-01T08:29:39.639Z,96642.51
2017-08-01T08:32:05.548Z,96636.48
2017-08-01T08:34:31.366Z,96624.13
2017-08-01T08:36:57.217Z,96639.78
2017-08-01T08:39:23.063Z,96632.69
2017-08-01T08:41:48.916Z,96642.03
2017-08-01T08:44:14.918Z,96631.63
2017-08-01T08:46:40.813Z,96631.06
2017-08-01T08:49:06.804Z,96633.52
2017-08-01T08:51:32.731Z,96621.48
2017-08-01T08:53:58.647Z,96623.83
2017-08-01T08:56:24.678Z,96624.54
2017-08-01T08:58:50.590Z,96617.66
2017-08-01T09:01:17.255Z,96623.14
2017-08-01T09:03:43.080Z,96572.52
2017-08-01T09:06:08.924Z,96624.27
2017-08-01T09:08:34.734Z,96620.92
2017-08-01T09:11:01.315Z,96625.84
2017-08-01T09:13:27.314Z,96622.67
2017-08-01T09:15:54.000Z,96617.48
2017-08-01T09:18:20.030Z,96617.98
2017-08-01T09:20:46.071Z,96614.99
2017-08-01T09:23:11.934Z,96616.44
2017-08-01T09:25:37.805Z,96608.52
2017-08-01T09:28:03.837Z,96607.81
2017-08-01T09:30:29.857Z,96601.45
2017-08-01T09:32:55.798Z,96604.45
2017-08-01T09:35:21.730Z,96590.43
2017-08-01T09:37:47.687Z,96595.80
2017-08-01T09:40:13.595Z,96586.20
2017-08-01T09:42:39.540Z,96575.19
2017-08-01T09:45:05.497Z,96578.99
2017-08-01T09:47:31.405Z,96560.42
2017-08-01T09:49:57.405Z,96585.27
2017-08-01T09:52:24.034Z,96584.06
2017-08-01T09:54:49.942Z,96573.95
2017-08-01T09:57:15.989Z,96578.09
2017-08-01T09:59:41.844Z,96573.48
2017-08-01T10:02:07.706Z,96573.38
2017-08-01T10:04:33.814Z,96561.63
2017-08-01T10:06:59.725Z,96555.18
2017-08-01T10:09:25.687Z,96553.73
2017-08-01T10:11:51.730Z,96546.16
2017-08-01T10:14:17.726Z,96536.14
2017-08-01T10:16:43.771Z,96541.98
2017-08-01T10:19:09.722Z,96550.77
2017-08-01T10:21:35.780Z,96542.47
2017-08-01T10:24:01.855Z,96543.38
2017-08-01T10:26:27.748Z,96554.34
2017-08-01T10:28:53.709Z,96546.20
2017-08-01T10:31:19.641Z,96549.45
2017-08-01T10:33:45.610Z,96562.06
2017-08-01T10:36:11.479Z,96456.77
2017-08-01T10:38:37.685Z,96556.52
2017-08-01T10:41:03.730Z,96559.45
2017-08-01T10:43:30.414Z,96567.77
2017-08-01T10:45:56.495Z,96565.28
2017-08-01T10:48:22.445Z,96550.44
2017-08-01T10:50:48.448Z,96562.47
2017-08-01T10:53:14.442Z,96557.98
2017-08-01T10:55:40.365Z,96546.61
2017-08-01T10:58:06.253Z,96543.16
2017-08-01T11:00:32.300Z,96537.15
2017-08-01T11:02:58.159Z,96530.75
2017-08-01T11:05:24.060Z,96513.72
2017-08-01T11:07:49.904Z,96506.62
2017-08-01T11:10:15.901Z,96523.05
2017-08-01T11:12:41.977Z,96559.22
2017-08-01T11:15:07.963Z,96561.02
2017-08-01T11:17:33.913Z,96536.20
2017-08-01T11:19:59.786Z,96531.38
2017-08-01T11:22:25.665Z,96516.52
2017-08-01T11:24:51.554Z,96513.31
2017-08-01T11:27:17.381Z,96513.24
2017-08-01T11:29:43.299Z,96511.80
2017-08-01T11:32:09.281Z,96496.77
2017-08-01T11:34:36.073Z,96513.20
2017-08-01T11:37:01.961Z,96505.18
2017-08-01T11:39:27.842Z,96515.20
2017-08-01T11:41:53.860Z,96510.46
2017-08-01T11:44:19.847Z,96509.91
2017-08-01T11:46:45.940Z,96516.48
2017-08-01T11:49:11.865Z,96514.70
2017-08-01T11:51:37.719Z,96529.09
2017-08-01T11:54:04.055Z,96529.75
2017-08-01T11:56:30.774Z,96505.42
2017-08-01T11:58:56.803Z,96527.19
2017-08-01T12:01:22.657Z,96536.52
2017-08-01T12:03:48.599Z,96535.48
2017-08-01T12:06:14.439Z,96521.36
2017-08-01T12:08:40.328Z,96521.05
2017-08-01T12:11:06.646Z,96526.85
2017-08-01T12:13:33.321Z,96531.75
2017-08-01T12:15:59.261Z,96533.02
2017-08-01T12:18:25.138Z,96530.23
2017-08-01T12:20:51.040Z,96505.80
2017-08-01T12:23:17.133Z,96522.59
2017-08-01T12:25:43.016Z,96494.31
2017-08-01T12:28:08.871Z,96496.78
2017-08-01T12:30:34.808Z,96506.91
2017-08-01T12:33:00.766Z,96507.75
2017-08-01T12:35:26.754Z,96515.84
2017-08-01T12:37:55.869Z,96521.49
2017-08-01T12:42:59.372Z,96516.27
2017-08-01T12:45:25.277Z,96514.10
2017-08-01T12:47:51.220Z,96516.20
2017-08-01T12:50:17.064Z,96511.76
2017-08-01T12:52:43.083Z,96514.86
2017-08-01T12:55:09.033Z,96517.89
2017-08-01T12:57:35.440Z,96510.28
2017-08-01T13:00:01.349Z,96487.28
2017-08-01T13:02:27.957Z,96510.05
2017-08-01T13:04:53.813Z,96513.02
2017-08-01T13:07:19.817Z,96517.03
2017-08-01T13:09:45.677Z,96514.58
2017-08-01T13:12:11.585Z,96516.71
2017-08-01T13:14:37.561Z,96501.19
2017-08-01T13:17:03.528Z,96498.28
2017-08-01T13:19:29.573Z,96505.63
2017-08-01T13:21:55.491Z,96510.25
2017-08-01T13:24:21.427Z,96503.12
2017-08-01T13:26:48.195Z,96500.41
2017-08-01T13:29:14.043Z,96489.91
2017-08-01T13:31:40.063Z,96468.86
2017-08-01T13:34:06.164Z,96470.85
2017-08-01T13:36:32.079Z,96464.80
2017-08-01T13:38:57.915Z,96464.23
2017-08-01T13:41:23.804Z,96473.25
2017-08-01T13:43:49.731Z,96474.86
2017-08-01T13:46:15.595Z,96488.23
2017-08-01T13:48:41.641Z,96505.85
2017-08-01T13:51:07.629Z,96526.42
2017-08-01T13:53:33.504Z,96541.06
2017-08-01T13:56:00.285Z,96548.60
2017-08-01T13:58:26.161Z,96551.57
2017-08-01T14:00:52.120Z,96551.62
2017-08-01T14:03:18.034Z,96549.50
2017-08-01T14:05:43.982Z,96535.61
2017-08-01T14:08:09.859Z,96538.92
2017-08-01T14:10:35.819Z,96558.63
2017-08-01T14:13:01.701Z,96584.30
2017-08-01T14:15:27.625Z,96613.69
2017-08-01T14:17:53.593Z,96644.38
2017-08-01T14:20:19.572Z,96643.85
2017-08-01T14:22:45.493Z,96661.64
2017-08-01T14:25:11.927Z,96630.88
2017-08-01T14:27:37.768Z,96581.33
2017-08-01T14:30:03.715Z,96549.29
2017-08-01T14:32:29.593Z,96565.23
2017-08-01T14:34:55.529Z,96586.13
2017-08-01T14:37:21.433Z,96588.95
2017-08-01T14:39:47.850Z,96594.63
2017-08-01T14:42:13.776Z,96591.16
2017-08-01T14:44:41.499Z,96604.17
2017-08-01T14:47:07.357Z,96598.02
2017-08-01T14:49:33.278Z,96606.58
2017-08-01T14:51:59.298Z,96619.34
2017-08-01T14:54:25.233Z,96610.98
2017-08-01T14:56:51.150Z,96626.19
2017-08-01T14:59:17.174Z,96632.83
2017-08-01T15:01:43.191Z,96644.42
2017-08-01T15:04:09.226Z,96621.46
2017-08-01T15:06:35.149Z,96592.86
2017-08-01T15:09:01.087Z,96590.73
2017-08-01T15:11:27.002Z,96623.61
2017-08-01T15:13:53.514Z,96653.73
2017-08-01T15:16:19.353Z,96645.17
2017-08-01T15:18:45.225Z,96624.52
2017-08-01T15:21:11.107Z,96621.30
2017-08-01T15:23:37.069Z,96642.91
2017-08-01T15:26:02.952Z,96633.77
2017-08-01T15:28:28.931Z,96626.98
2017-08-01T15:30:55.609Z,96612.13
2017-08-01T15:33:21.603Z,96584.40
2017-08-01T15:35:47.606Z,96574.55
2017-08-01T15:38:13.705Z,96587.84
2017-08-01T15:40:39.537Z,96612.54
2017-08-01T15:43:05.460Z,96625.48
2017-08-01T15:45:31.509Z,96617.30
2017-08-01T15:47:59.219Z,96594.36
2017-08-01T15:50:25.125Z,96562.64
2017-08-01T15:52:51.176Z,96545.59
2017-08-01T15:55:17.062Z,96534.36
2017-08-01T15:57:43.201Z,96540.19
2017-08-01T16:00:09.263Z,96539.34
2017-08-01T16:02:36.285Z,96553.33
2017-08-01T16:05:02.949Z,96557.46
2017-08-01T16:07:31.065Z,96566.54
2017-08-01T16:09:57.052Z,96532.58
2017-08-01T16:12:23.456Z,96599.80
2017-08-01T16:14:49.968Z,96612.28
2017-08-01T16:17:16.714Z,96606.66
2017-08-01T16:19:43.549Z,96646.77
2017-08-01T16:22:09.565Z,96677.48
2017-08-01T16:24:35.433Z,96712.30
2017-08-01T16:27:01.390Z,96726.23
2017-08-01T16:29:27.287Z,96715.33
2017-08-01T16:31:53.179Z,96692.98
2017-08-01T16:34:19.097Z,96660.88
2017-08-01T16:36:45.092Z,96647.56
2017-08-01T16:39:11.015Z,96628.45
2017-08-01T16:41:36.910Z,96612.30
2017-08-01T16:44:02.821Z,96635.06
2017-08-01T16:46:29.369Z,96654.95
2017-08-01T16:48:55.425Z,96639.98
2017-08-01T16:51:22.210Z,96577.59
2017-08-01T16:53:48.070Z,96531.88
2017-08-01T16:56:13.893Z,96527.63
2017-08-01T16:58:39.970Z,96550.70
2017-08-01T17:01:06.386Z,96574.54
2017-08-01T17:03:32.370Z,96559.72
2017-08-01T17:05:58.178Z,96547.83
2017-08-01T17:08:24.232Z,96540.47
2017-08-01T17:10:50.094Z,96560.88
2017-08-01T17:13:15.991Z,96578.25
2017-08-01T17:15:41.923Z,96591.81
2017-08-01T17:18:07.847Z,96607.59
2017-08-01T17:20:33.749Z,96606.58
2017-08-01T17:22:59.608Z,96601.36
2017-08-01T17:25:25.621Z,96637.60
2017-08-01T17:27:53.442Z,96647.19
2017-08-01T17:30:19.267Z,96639.61
2017-08-01T17:32:45.397Z,96640.86
2017-08-01T17:35:11.224Z,96640.30
2017-08-01T17:37:37.080Z,96636.44
2017-08-01T17:40:04.985Z,96644.58
2017-08-01T17:42:30.842Z,96628.17
2017-08-01T17:44:56.845Z,96609.36
2017-08-01T17:47:22.901Z,96595.89
2017-08-01T17:49:48.810Z,96610.38
2017-08-01T17:52:14.730Z,96594.91
2017-08-01T17:54:40.685Z,96581.75
2017-08-01T17:57:06.647Z,96579.36
2017-08-01T17:59:32.570Z,96570.20
2017-08-01T18:01:58.477Z,96598.92
2017-08-01T18:04:24.422Z,96581.13
2017-08-01T18:06:50.394Z,96561.63
2017-08-01T18:09:16.398Z,96569.00
2017-08-01T18:11:42.368Z,96560.94
2017-08-01T18:14:09.065Z,96556.03
2017-08-01T18:16:34.976Z,96545.14
2017-08-01T18:19:00.924Z,96546.45
2017-08-01T18:21:26.836Z,96547.84
2017-08-01T18:23:52.856Z,96544.09
2017-08-01T18:26:20.605Z,96535.38
2017-08-01T18:28:46.500Z,96562.25
2017-08-01T18:31:12.363Z,96628.69
2017-08-01T18:33:38.325Z,96649.00
2017-08-01T18:36:04.162Z,96599.09
2017-08-01T18:38:30.167Z,96627.28
2017-08-01T18:40:56.679Z,96664.17
2017-08-01T18:43:22.668Z,96666.77
2017-08-01T18:45:48.763Z,96674.48
2017-08-01T18:48:14.728Z,96704.34
2017-08-01T18:50:40.659Z,96732.38
2017-08-01T18:53:06.579Z,96746.73
2017-08-01T18:55:32.688Z,96765.26
2017-08-01T18:57:58.564Z,96779.47
2017-08-01T19:00:24.431Z,96747.00
2017-08-01T19:02:50.374Z,96697.48
2017-08-01T19:05:16.197Z,96668.88
2017-08-01T19:07:42.039Z,96663.91
2017-08-01T19:10:07.912Z,96689.69
2017-08-01T19:12:33.757Z,96706.68
2017-08-01T19:14:59.784Z,96696.75
2017-08-01T19:17:25.772Z,96703.47
2017-08-01T19:19:51.630Z,96739.29
2017-08-01T19:22:17.564Z,96773.56
2017-08-01T19:24:43.465Z,96804.78
2017-08-01T19:27:09.407Z,96867.50
2017-08-01T19:29:35.315Z,96845.16
2017-08-01T19:32:01.386Z,96794.85
2017-08-01T19:34:27.345Z,96744.45
2017-08-01T19:36:53.457Z,96722.04
2017-08-01T19:39:19.396Z,96707.53
2017-08-01T19:41:46.005Z,96728.72
2017-08-01T19:44:12.152Z,96749.64
2017-08-01T19:46:38.421Z,96754.61
2017-08-01T19:49:04.332Z,96772.51
2017-08-01T19:51:30.277Z,96794.17
2017-08-01T19:53:57.035Z,96795.18
2017-08-01T19:56:23.055Z,96810.52
2017-08-01T19:58:49.825Z,96826.63
2017-08-01T20:01:15.826Z,96859.39
2017-08-01T20:03:45.681Z,96902.44
2017-08-01T20:06:11.644Z,96928.72
2017-08-01T20:08:39.302Z,96950.28
2017-08-01T20:11:06.158Z,96933.17
2017-08-01T20:13:34.211Z,96905.44
2017-08-01T20:16:00.325Z,96869.56
2017-08-01T20:18:26.352Z,96813.24
2017-08-01T20:20:52.368Z,96861.84
2017-08-01T20:23:19.319Z,96879.72
2017-08-01T20:25:46.005Z,96863.92
2017-08-01T20:28:11.963Z,96853.75
2017-08-01T20:30:38.827Z,96852.72
2017-08-01T20:33:06.534Z,96807.53
2017-08-01T20:35:32.521Z,96771.25
2017-08-01T20:37:58.585Z,96747.14
2017-08-01T20:40:25.586Z,96714.46
2017-08-01T20:42:52.335Z,96702.44
2017-08-01T20:45:18.209Z,96713.22
2017-08-01T20:47:44.914Z,96701.64
2017-08-01T20:50:12.266Z,96680.33
2017-08-01T20:52:38.267Z,96700.92
2017-08-01T20:55:04.249Z,96718.30
2017-08-01T20:57:30.212Z,96712.01
2017-08-01T20:59:56.199Z,96713.26
2017-08-01T21:02:22.839Z,96695.78
2017-08-01T21:04:50.547Z,96659.66
2017-08-01T21:07:17.487Z,96692.09
2017-08-01T21:09:45.052Z,96708.73
2017-08-01T21:12:12.021Z,96722.06
2017-08-01T21:14:38.114Z,96726.89
2017-08-01T21:17:04.109Z,96737.30
2017-08-01T21:19:30.148Z,96747.17
2017-08-01T21:21:58.000Z,96753.84
2017-08-01T21:24:24.913Z,96754.23
2017-08-01T21:26:50.877Z,96757.39
2017-08-01T21:29:17.541Z,96762.73
2017-08-01T21:31:43.525Z,96778.67
2017-08-01T21:34:09.395Z,96819.81
2017-08-01T21:36:36.259Z,96858.63
2017-08-01T21:39:03.026Z,96870.41
2017-08-01T21:41:28.954Z,96854.77
2017-08-01T21:43:54.876Z,96846.80
2017-08-01T21:46:20.886Z,96852.93
2017-08-01T21:48:46.780Z,96819.29
2017-08-01T21:51:13.527Z,96749.97
2017-08-01T21:53:39.472Z,96732.19
2017-08-01T21:56:06.280Z,96801.14
2017-08-01T21:58:32.612Z,96792.53
2017-08-01T22:01:00.082Z,96805.17
2017-08-01T22:03:26.284Z,96802.17
2017-08-01T22:05:57.075Z,96823.94
2017-08-01T22:08:23.896Z,96830.59
2017-08-01T22:10:49.939Z,96824.63
2017-08-01T22:13:15.868Z,96832.76
2017-08-01T22:15:41.828Z,96820.91
2017-08-01T22:18:07.912Z,96820.96
2017-08-01T22:20:33.840Z,96814.53
2017-08-01T22:22:59.967Z,96805.77
2017-08-01T22:25:27.008Z,96808.84
2017-08-01T22:27:52.941Z,96822.27
2017-08-01T22:30:19.760Z,96828.98
2017-08-01T22:32:45.638Z,96855.39
2017-08-01T22:35:12.477Z,96840.22
2017-08-01T22:37:38.516Z,96838.55
2017-08-01T22:40:04.617Z,96840.67
2017-08-01T22:42:31.405Z,96826.10
2017-08-01T22:45:02.490Z,96840.85
2017-08-01T22:47:28.477Z,96832.63
2017-08-01T22:49:56.357Z,96820.61
2017-08-01T22:52:22.326Z,96838.55
2017-08-01T22:54:49.091Z,96837.48
2017-08-01T22:57:17.635Z,96833.38
2017-08-01T22:59:47.441Z,96809.61
2017-08-01T23:02:13.372Z,96799.26
2017-08-01T23:04:40.116Z,96799.48
2017-08-01T23:07:06.243Z,96795.18
2017-08-01T23:09:32.142Z,96794.98
2017-08-01T23:11:58.110Z,96810.34
2017-08-01T23:14:23.983Z,96818.25
2017-08-01T23:16:51.703Z,96838.95
2017-08-01T23:19:18.819Z,96857.16
2017-08-01T23:21:44.683Z,96865.64
2017-08-01T23:24:10.589Z,96836.66
2017-08-01T23:26:36.509Z,96860.37
2017-08-01T23:29:02.472Z,96840.58
2017-08-01T23:31:29.276Z,96833.41
2017-08-01T23:33:55.340Z,96830.02
2017-08-01T23:36:22.131Z,96827.06
2017-08-01T23:38:48.158Z,96832.44
2017-08-01T23:41:14.153Z,96831.80
2017-08-01T23:43:40.836Z,96831.63
2017-08-01T23:46:06.834Z,96822.66
2017-08-01T23:48:32.755Z,96821.33
2017-08-01T23:50:58.700Z,96831.45
2017-08-01T23:53:24.708Z,96837.91
2017-08-01T23:55:50.761Z,96852.27
2017-08-01T23:58:16.819Z,96857.67
